AFL5703 UHWW-UHHH
Flight info
| Callsign | AFL5703 |
|---|---|
| Flight time | 1h 9m |
| Altitude | 35000 |
| Route | DOLMA B356 TD B355 ARDEL |
| Aircraft | A321/M-SDE3FGHIRWY/LB1 |
Departure
| Time | 2026-05-06 18:57 |
|---|---|
| Airport | Vladivostok International Airport (UHWW) |
Arrival
| Time | 2026-05-06 20:07 |
|---|---|
| Airport | Khabarovsk Novy Airport (UHHH) |
| Time | Latitude | Longitude | Altitude | Speed | Heading |
|---|---|---|---|---|---|
| 2026-05-06 18:33 | 43.39753 | 132.16559 | 51 ft | 0 kts | 151° |
| 2026-05-06 18:45 | 43.39764 | 132.16551 | 51 ft | 2 kts | 150° |
| 2026-05-06 18:45 | 43.39777 | 132.16540 | 51 ft | 2 kts | 150° |
| 2026-05-06 18:46 | 43.39790 | 132.16531 | 50 ft | 2 kts | 150° |
| 2026-05-06 18:46 | 43.39803 | 132.16521 | 50 ft | 2 kts | 154° |
| 2026-05-06 18:46 | 43.39818 | 132.16516 | 49 ft | 2 kts | 180° |
| 2026-05-06 18:46 | 43.39833 | 132.16519 | 49 ft | 2 kts | 199° |
| 2026-05-06 18:47 | 43.39846 | 132.16528 | 48 ft | 2 kts | 219° |
| 2026-05-06 18:47 | 43.39856 | 132.16542 | 48 ft | 1 kts | 238° |
| 2026-05-06 18:47 | 43.39859 | 132.16550 | 48 ft | 1 kts | 242° |
| 2026-05-06 18:47 | 43.39860 | 132.16553 | 48 ft | 0 kts | 242° |
| 2026-05-06 18:50 | 43.39846 | 132.16519 | 49 ft | 8 kts | 240° |
| 2026-05-06 18:50 | 43.39813 | 132.16437 | 51 ft | 9 kts | 240° |
| 2026-05-06 18:50 | 43.39785 | 132.16368 | 54 ft | 7 kts | 241° |
| 2026-05-06 18:50 | 43.39753 | 132.16287 | 57 ft | 9 kts | 245° |
| 2026-05-06 18:51 | 43.39764 | 132.16209 | 58 ft | 10 kts | 315° |
| 2026-05-06 18:51 | 43.39845 | 132.16142 | 56 ft | 12 kts | 330° |
| 2026-05-06 18:51 | 43.39887 | 132.16054 | 55 ft | 12 kts | 256° |
| 2026-05-06 18:51 | 43.39849 | 132.15944 | 56 ft | 11 kts | 242° |
| 2026-05-06 18:52 | 43.39806 | 132.15840 | 60 ft | 15 kts | 240° |
| 2026-05-06 18:52 | 43.39742 | 132.15680 | 61 ft | 20 kts | 240° |
| 2026-05-06 18:52 | 43.39674 | 132.15512 | 62 ft | 21 kts | 241° |
| 2026-05-06 18:52 | 43.39597 | 132.15320 | 60 ft | 23 kts | 241° |
| 2026-05-06 18:53 | 43.39519 | 132.15128 | 58 ft | 23 kts | 240° |
| 2026-05-06 18:53 | 43.39440 | 132.14934 | 57 ft | 22 kts | 240° |
| 2026-05-06 18:53 | 43.39362 | 132.14740 | 53 ft | 23 kts | 241° |
| 2026-05-06 18:53 | 43.39281 | 132.14542 | 52 ft | 23 kts | 240° |
| 2026-05-06 18:54 | 43.39203 | 132.14348 | 49 ft | 24 kts | 241° |
| 2026-05-06 18:54 | 43.39122 | 132.14146 | 43 ft | 24 kts | 241° |
| 2026-05-06 18:54 | 43.39046 | 132.13957 | 38 ft | 21 kts | 241° |
| 2026-05-06 18:54 | 43.38976 | 132.13785 | 32 ft | 20 kts | 240° |
| 2026-05-06 18:55 | 43.38913 | 132.13628 | 29 ft | 17 kts | 240° |
| 2026-05-06 18:55 | 43.38853 | 132.13477 | 26 ft | 18 kts | 242° |
| 2026-05-06 18:55 | 43.38791 | 132.13325 | 26 ft | 18 kts | 240° |
| 2026-05-06 18:55 | 43.38794 | 132.13190 | 26 ft | 13 kts | 317° |
| 2026-05-06 18:56 | 43.38863 | 132.13133 | 26 ft | 11 kts | 331° |
| 2026-05-06 18:56 | 43.38935 | 132.13115 | 26 ft | 11 kts | 28° |
| 2026-05-06 18:56 | 43.38983 | 132.13202 | 26 ft | 12 kts | 60° |
| 2026-05-06 18:56 | 43.39065 | 132.13403 | 26 ft | 52 kts | 60° |
| 2026-05-06 18:57 | 43.39368 | 132.14149 | 39 ft | 123 kts | 61° |
| 2026-05-06 18:57 | 43.39880 | 132.15395 | 130 ft | 170 kts | 57° |
| 2026-05-06 18:57 | 43.40465 | 132.16818 | 808 ft | 171 kts | 59° |
| 2026-05-06 18:57 | 43.41009 | 132.18196 | 1658 ft | 165 kts | 57° |
| 2026-05-06 18:58 | 43.41550 | 132.19537 | 2237 ft | 163 kts | 56° |
| 2026-05-06 18:58 | 43.42132 | 132.20958 | 2494 ft | 176 kts | 57° |
| 2026-05-06 18:58 | 43.42751 | 132.22470 | 2739 ft | 191 kts | 57° |
| 2026-05-06 18:58 | 43.43420 | 132.24120 | 3027 ft | 205 kts | 57° |
| 2026-05-06 18:59 | 43.44149 | 132.25917 | 3259 ft | 224 kts | 57° |
| 2026-05-06 18:59 | 43.44928 | 132.27856 | 3655 ft | 237 kts | 57° |
| 2026-05-06 18:59 | 43.45744 | 132.29883 | 4068 ft | 250 kts | 57° |
| 2026-05-06 18:59 | 43.46588 | 132.31985 | 4656 ft | 256 kts | 57° |
| 2026-05-06 19:00 | 43.47456 | 132.34157 | 5270 ft | 261 kts | 57° |
| 2026-05-06 19:00 | 43.48336 | 132.36317 | 5882 ft | 264 kts | 53° |
| 2026-05-06 19:00 | 43.49539 | 132.38232 | 6452 ft | 264 kts | 35° |
| 2026-05-06 19:00 | 43.51067 | 132.39625 | 7035 ft | 266 kts | 26° |
| 2026-05-06 19:01 | 43.52679 | 132.40892 | 7602 ft | 272 kts | 25° |
| 2026-05-06 19:01 | 43.54335 | 132.42177 | 8138 ft | 279 kts | 25° |
| 2026-05-06 19:01 | 43.56041 | 132.43510 | 8692 ft | 284 kts | 25° |
| 2026-05-06 19:01 | 43.57759 | 132.44864 | 9214 ft | 290 kts | 25° |
| 2026-05-06 19:02 | 43.59523 | 132.46257 | 9721 ft | 297 kts | 25° |
| 2026-05-06 19:02 | 43.61324 | 132.47690 | 10221 ft | 304 kts | 25° |
| 2026-05-06 19:02 | 43.63217 | 132.49194 | 10499 ft | 319 kts | 25° |
| 2026-05-06 19:02 | 43.65164 | 132.50745 | 10762 ft | 333 kts | 25° |
| 2026-05-06 19:03 | 43.67217 | 132.52380 | 11022 ft | 347 kts | 25° |
| 2026-05-06 19:03 | 43.69328 | 132.54069 | 11316 ft | 359 kts | 25° |
| 2026-05-06 19:03 | 43.71513 | 132.55824 | 11797 ft | 364 kts | 25° |
| 2026-05-06 19:03 | 43.73710 | 132.57591 | 12305 ft | 368 kts | 25° |
| 2026-05-06 19:04 | 43.75920 | 132.59364 | 12790 ft | 372 kts | 25° |
| 2026-05-06 19:04 | 43.78190 | 132.61186 | 13293 ft | 377 kts | 25° |
| 2026-05-06 19:04 | 43.80407 | 132.63152 | 13756 ft | 384 kts | 30° |
| 2026-05-06 19:04 | 43.82526 | 132.65389 | 14191 ft | 391 kts | 36° |
| 2026-05-06 19:05 | 43.84598 | 132.67889 | 14700 ft | 394 kts | 38° |
| 2026-05-06 19:05 | 43.86614 | 132.70404 | 15215 ft | 396 kts | 38° |
| 2026-05-06 19:05 | 43.88685 | 132.72995 | 15645 ft | 401 kts | 38° |
| 2026-05-06 19:05 | 43.90746 | 132.75563 | 16018 ft | 406 kts | 38° |
| 2026-05-06 19:06 | 43.92859 | 132.78188 | 16415 ft | 410 kts | 38° |
| 2026-05-06 19:06 | 43.95007 | 132.80850 | 16818 ft | 414 kts | 37° |
| 2026-05-06 19:06 | 43.97144 | 132.83495 | 17193 ft | 418 kts | 37° |
| 2026-05-06 19:06 | 43.99338 | 132.86214 | 17567 ft | 423 kts | 38° |
| 2026-05-06 19:07 | 44.01519 | 132.88917 | 17950 ft | 427 kts | 37° |
| 2026-05-06 19:07 | 44.03754 | 132.91695 | 18334 ft | 431 kts | 37° |
| 2026-05-06 19:07 | 44.06002 | 132.94479 | 18713 ft | 435 kts | 37° |
| 2026-05-06 19:07 | 44.08252 | 132.97276 | 19097 ft | 438 kts | 37° |
| 2026-05-06 19:08 | 44.10524 | 133.00102 | 19427 ft | 442 kts | 37° |
| 2026-05-06 19:08 | 44.12836 | 133.02974 | 19770 ft | 446 kts | 37° |
| 2026-05-06 19:08 | 44.15129 | 133.05823 | 20158 ft | 448 kts | 37° |
| 2026-05-06 19:08 | 44.17462 | 133.08728 | 20501 ft | 452 kts | 37° |
| 2026-05-06 19:09 | 44.19844 | 133.11653 | 20986 ft | 449 kts | 35° |
| 2026-05-06 19:09 | 44.22286 | 133.14328 | 21406 ft | 448 kts | 32° |
| 2026-05-06 19:09 | 44.24797 | 133.16923 | 21742 ft | 451 kts | 30° |
| 2026-05-06 19:09 | 44.27338 | 133.19511 | 22059 ft | 455 kts | 31° |
| 2026-05-06 19:10 | 44.29883 | 133.22108 | 22372 ft | 458 kts | 31° |
| 2026-05-06 19:10 | 44.32478 | 133.24765 | 22693 ft | 461 kts | 31° |
| 2026-05-06 19:10 | 44.35066 | 133.27428 | 22992 ft | 465 kts | 31° |
| 2026-05-06 19:10 | 44.37645 | 133.30092 | 23282 ft | 468 kts | 31° |
| 2026-05-06 19:11 | 44.40287 | 133.32828 | 23592 ft | 472 kts | 31° |
| 2026-05-06 19:11 | 44.42903 | 133.35536 | 23905 ft | 475 kts | 31° |
| 2026-05-06 19:11 | 44.45572 | 133.38300 | 24241 ft | 477 kts | 30° |
| 2026-05-06 19:11 | 44.48254 | 133.41090 | 24577 ft | 479 kts | 31° |
| 2026-05-06 19:12 | 44.50914 | 133.43861 | 24881 ft | 482 kts | 30° |
| 2026-05-06 19:12 | 44.53596 | 133.46660 | 25197 ft | 485 kts | 31° |
| 2026-05-06 19:12 | 44.56309 | 133.49489 | 25521 ft | 486 kts | 30° |
| 2026-05-06 19:12 | 44.59014 | 133.52309 | 25831 ft | 489 kts | 30° |
| 2026-05-06 19:13 | 44.61770 | 133.55188 | 26140 ft | 491 kts | 30° |
| 2026-05-06 19:13 | 44.64492 | 133.58038 | 26465 ft | 493 kts | 30° |
| 2026-05-06 19:13 | 44.67242 | 133.60915 | 26739 ft | 496 kts | 30° |
| 2026-05-06 19:13 | 44.70036 | 133.63844 | 26999 ft | 499 kts | 30° |
| 2026-05-06 19:14 | 44.72795 | 133.66748 | 27273 ft | 501 kts | 31° |
| 2026-05-06 19:14 | 44.75565 | 133.69679 | 27554 ft | 503 kts | 31° |
| 2026-05-06 19:14 | 44.78372 | 133.72653 | 27799 ft | 506 kts | 31° |
| 2026-05-06 19:14 | 44.81179 | 133.75624 | 28076 ft | 507 kts | 30° |
| 2026-05-06 19:15 | 44.84001 | 133.78607 | 28348 ft | 508 kts | 31° |
| 2026-05-06 19:15 | 44.86833 | 133.81604 | 28595 ft | 510 kts | 30° |
| 2026-05-06 19:15 | 44.89655 | 133.84595 | 28874 ft | 511 kts | 30° |
| 2026-05-06 19:15 | 44.92532 | 133.87624 | 29094 ft | 513 kts | 30° |
| 2026-05-06 19:16 | 44.95432 | 133.90549 | 29316 ft | 514 kts | 28° |
| 2026-05-06 19:16 | 44.98344 | 133.93428 | 29538 ft | 516 kts | 28° |
| 2026-05-06 19:16 | 45.01287 | 133.96332 | 29801 ft | 517 kts | 28° |
| 2026-05-06 19:16 | 45.04237 | 133.99251 | 30016 ft | 519 kts | 28° |
| 2026-05-06 19:17 | 45.07187 | 134.02179 | 30250 ft | 520 kts | 28° |
| 2026-05-06 19:17 | 45.10143 | 134.05127 | 30473 ft | 521 kts | 28° |
| 2026-05-06 19:17 | 45.13102 | 134.08079 | 30725 ft | 521 kts | 28° |
| 2026-05-06 19:17 | 45.16068 | 134.11040 | 31033 ft | 520 kts | 27° |
| 2026-05-06 19:18 | 45.19000 | 134.13977 | 31308 ft | 520 kts | 27° |
| 2026-05-06 19:18 | 45.21909 | 134.16898 | 31588 ft | 519 kts | 27° |
| 2026-05-06 19:18 | 45.24874 | 134.19875 | 31828 ft | 519 kts | 27° |
| 2026-05-06 19:18 | 45.27785 | 134.22809 | 32085 ft | 519 kts | 26° |
| 2026-05-06 19:19 | 45.30758 | 134.25804 | 32159 ft | 523 kts | 26° |
| 2026-05-06 19:19 | 45.36680 | 134.31792 | 32351 ft | 529 kts | 26° |
| 2026-05-06 19:20 | 45.42713 | 134.37897 | 32524 ft | 535 kts | 26° |
| 2026-05-06 19:20 | 45.48771 | 134.44055 | 32681 ft | 541 kts | 27° |
| 2026-05-06 19:21 | 45.54930 | 134.50339 | 32843 ft | 546 kts | 26° |
| 2026-05-06 19:21 | 45.57992 | 134.53470 | 32959 ft | 546 kts | 26° |
| 2026-05-06 19:21 | 45.61095 | 134.56644 | 33056 ft | 548 kts | 26° |
| 2026-05-06 19:21 | 45.64178 | 134.59810 | 33188 ft | 548 kts | 26° |
| 2026-05-06 19:22 | 45.67242 | 134.62958 | 33391 ft | 547 kts | 26° |
| 2026-05-06 19:22 | 45.70333 | 134.66144 | 33562 ft | 546 kts | 27° |
| 2026-05-06 19:22 | 45.73412 | 134.69331 | 33690 ft | 546 kts | 27° |
| 2026-05-06 19:23 | 45.79539 | 134.75678 | 33868 ft | 546 kts | 27° |
| 2026-05-06 19:23 | 45.85794 | 134.81641 | 34112 ft | 534 kts | 18° |
| 2026-05-06 19:23 | 45.89079 | 134.83964 | 34251 ft | 522 kts | 12° |
| 2026-05-06 19:24 | 45.92408 | 134.85763 | 34350 ft | 510 kts | 5° |
| 2026-05-06 19:24 | 45.99188 | 134.87924 | 34462 ft | 491 kts | 354° |
| 2026-05-06 19:25 | 46.05970 | 134.88831 | 34580 ft | 488 kts | 351° |
| 2026-05-06 19:25 | 46.12689 | 134.89632 | 34711 ft | 489 kts | 352° |
| 2026-05-06 19:26 | 46.19452 | 134.90501 | 34830 ft | 489 kts | 352° |
| 2026-05-06 19:26 | 46.26220 | 134.91400 | 34844 ft | 488 kts | 352° |
| 2026-05-06 19:27 | 46.32939 | 134.92299 | 34849 ft | 488 kts | 352° |
| 2026-05-06 19:27 | 46.39690 | 134.93201 | 34845 ft | 489 kts | 352° |
| 2026-05-06 19:28 | 46.46428 | 134.94107 | 34840 ft | 488 kts | 352° |
| 2026-05-06 19:28 | 46.53153 | 134.95016 | 34837 ft | 485 kts | 352° |
| 2026-05-06 19:29 | 46.59849 | 134.95917 | 34839 ft | 485 kts | 352° |
| 2026-05-06 19:29 | 46.66569 | 134.96832 | 34839 ft | 486 kts | 352° |
| 2026-05-06 19:30 | 46.73242 | 134.97775 | 34832 ft | 488 kts | 353° |
| 2026-05-06 19:30 | 46.80018 | 134.99612 | 34842 ft | 505 kts | 1° |
| 2026-05-06 19:31 | 46.86747 | 135.02832 | 34844 ft | 518 kts | 10° |
| 2026-05-06 19:31 | 46.96552 | 135.09888 | 34836 ft | 528 kts | 17° |
| 2026-05-06 19:32 | 47.03041 | 135.14917 | 34832 ft | 527 kts | 17° |
| 2026-05-06 19:32 | 47.09506 | 135.19891 | 34834 ft | 524 kts | 16° |
| 2026-05-06 19:33 | 47.15954 | 135.24808 | 34895 ft | 525 kts | 17° |
| 2026-05-06 19:33 | 47.22390 | 135.29738 | 34842 ft | 525 kts | 16° |
| 2026-05-06 19:34 | 47.28873 | 135.34723 | 34828 ft | 524 kts | 17° |
| 2026-05-06 19:34 | 47.35310 | 135.39685 | 34831 ft | 527 kts | 17° |
| 2026-05-06 19:35 | 47.41716 | 135.44664 | 34652 ft | 511 kts | 17° |
| 2026-05-06 19:35 | 47.44828 | 135.47090 | 34374 ft | 504 kts | 16° |
| 2026-05-06 19:35 | 47.47915 | 135.49490 | 33856 ft | 503 kts | 16° |
| 2026-05-06 19:36 | 47.51031 | 135.51910 | 33258 ft | 503 kts | 15° |
| 2026-05-06 19:36 | 47.54103 | 135.54295 | 32672 ft | 502 kts | 16° |
| 2026-05-06 19:36 | 47.57200 | 135.56703 | 31936 ft | 506 kts | 15° |
| 2026-05-06 19:36 | 47.60309 | 135.59123 | 31118 ft | 512 kts | 15° |
| 2026-05-06 19:37 | 47.63479 | 135.61589 | 30292 ft | 517 kts | 15° |
| 2026-05-06 19:37 | 47.66640 | 135.64066 | 29489 ft | 521 kts | 17° |
| 2026-05-06 19:37 | 47.69853 | 135.66597 | 29013 ft | 516 kts | 18° |
| 2026-05-06 19:37 | 47.71933 | 135.68251 | 28743 ft | 512 kts | 18° |
| 2026-05-06 19:38 | 47.76065 | 135.71535 | 28104 ft | 505 kts | 18° |
| 2026-05-06 19:38 | 47.79147 | 135.73975 | 27616 ft | 500 kts | 18° |
| 2026-05-06 19:38 | 47.82198 | 135.76436 | 27163 ft | 495 kts | 19° |
| 2026-05-06 19:38 | 47.85202 | 135.78893 | 26645 ft | 492 kts | 19° |
| 2026-05-06 19:39 | 47.88183 | 135.81352 | 26160 ft | 487 kts | 19° |
| 2026-05-06 19:39 | 47.91104 | 135.83763 | 25765 ft | 480 kts | 19° |
| 2026-05-06 19:39 | 47.94000 | 135.86147 | 25301 ft | 475 kts | 19° |
| 2026-05-06 19:39 | 47.96876 | 135.88510 | 24875 ft | 470 kts | 19° |
| 2026-05-06 19:40 | 47.99700 | 135.90839 | 24480 ft | 464 kts | 19° |
| 2026-05-06 19:40 | 48.02512 | 135.93158 | 24043 ft | 459 kts | 19° |
| 2026-05-06 19:40 | 48.05293 | 135.95479 | 23588 ft | 456 kts | 21° |
| 2026-05-06 19:40 | 48.07959 | 135.98033 | 23186 ft | 458 kts | 27° |
| 2026-05-06 19:41 | 48.10482 | 136.00926 | 22827 ft | 458 kts | 32° |
| 2026-05-06 19:41 | 48.12891 | 136.03981 | 22471 ft | 453 kts | 34° |
| 2026-05-06 19:41 | 48.15236 | 136.07028 | 22097 ft | 447 kts | 34° |
| 2026-05-06 19:41 | 48.17574 | 136.10057 | 21733 ft | 442 kts | 34° |
| 2026-05-06 19:42 | 48.19910 | 136.12999 | 21343 ft | 434 kts | 30° |
| 2026-05-06 19:42 | 48.22514 | 136.15080 | 20923 ft | 409 kts | 9° |
| 2026-05-06 19:42 | 48.25218 | 136.15741 | 20598 ft | 385 kts | 353° |
| 2026-05-06 19:42 | 48.27845 | 136.15813 | 20095 ft | 376 kts | 352° |
| 2026-05-06 19:43 | 48.30424 | 136.15825 | 19268 ft | 372 kts | 353° |
| 2026-05-06 19:43 | 48.32991 | 136.15852 | 18418 ft | 368 kts | 353° |
| 2026-05-06 19:43 | 48.35523 | 136.15913 | 17593 ft | 362 kts | 354° |
| 2026-05-06 19:43 | 48.38018 | 136.15988 | 16762 ft | 356 kts | 355° |
| 2026-05-06 19:44 | 48.40458 | 136.16069 | 15930 ft | 351 kts | 355° |
| 2026-05-06 19:44 | 48.42866 | 136.16156 | 15129 ft | 345 kts | 356° |
| 2026-05-06 19:44 | 48.45231 | 136.16243 | 14347 ft | 339 kts | 356° |
| 2026-05-06 19:44 | 48.47565 | 136.16328 | 13538 ft | 334 kts | 356° |
| 2026-05-06 19:45 | 48.49856 | 136.16412 | 12723 ft | 330 kts | 356° |
| 2026-05-06 19:45 | 48.52139 | 136.16492 | 11897 ft | 325 kts | 356° |
| 2026-05-06 19:45 | 48.54359 | 136.16389 | 11075 ft | 318 kts | 351° |
| 2026-05-06 19:45 | 48.56485 | 136.16032 | 10524 ft | 303 kts | 347° |
| 2026-05-06 19:46 | 48.58518 | 136.15515 | 10157 ft | 286 kts | 346° |
| 2026-05-06 19:46 | 48.60421 | 136.15002 | 9616 ft | 279 kts | 346° |
| 2026-05-06 19:46 | 48.62316 | 136.14484 | 9085 ft | 277 kts | 346° |
| 2026-05-06 19:46 | 48.64195 | 136.13969 | 8760 ft | 272 kts | 346° |
| 2026-05-06 19:47 | 48.66034 | 136.13467 | 8387 ft | 270 kts | 346° |
| 2026-05-06 19:47 | 48.67880 | 136.12965 | 8012 ft | 269 kts | 346° |
| 2026-05-06 19:47 | 48.69711 | 136.12466 | 7639 ft | 268 kts | 346° |
| 2026-05-06 19:47 | 48.71561 | 136.11961 | 7248 ft | 267 kts | 346° |
| 2026-05-06 19:48 | 48.73373 | 136.11467 | 6891 ft | 265 kts | 346° |
| 2026-05-06 19:48 | 48.75175 | 136.10934 | 6798 ft | 265 kts | 340° |
| 2026-05-06 19:48 | 48.76745 | 136.09631 | 6791 ft | 258 kts | 314° |
| 2026-05-06 19:48 | 48.77775 | 136.07433 | 6785 ft | 254 kts | 291° |
| 2026-05-06 19:49 | 48.78301 | 136.04932 | 6783 ft | 245 kts | 285° |
| 2026-05-06 19:49 | 48.78766 | 136.02516 | 6772 ft | 229 kts | 285° |
| 2026-05-06 19:49 | 48.79199 | 136.00285 | 6772 ft | 218 kts | 285° |
| 2026-05-06 19:49 | 48.79629 | 135.98084 | 6781 ft | 218 kts | 285° |
| 2026-05-06 19:50 | 48.80063 | 135.95874 | 6787 ft | 218 kts | 285° |
| 2026-05-06 19:50 | 48.80492 | 135.93689 | 6785 ft | 218 kts | 286° |
| 2026-05-06 19:50 | 48.80929 | 135.91472 | 6787 ft | 218 kts | 286° |
| 2026-05-06 19:50 | 48.81364 | 135.89270 | 6784 ft | 218 kts | 286° |
| 2026-05-06 19:51 | 48.81799 | 135.87073 | 6787 ft | 218 kts | 286° |
| 2026-05-06 19:51 | 48.82316 | 135.84921 | 6775 ft | 219 kts | 300° |
| 2026-05-06 19:51 | 48.83362 | 135.83240 | 6783 ft | 223 kts | 323° |
| 2026-05-06 19:51 | 48.84704 | 135.82028 | 6795 ft | 225 kts | 326° |
| 2026-05-06 19:52 | 48.86050 | 135.80858 | 6787 ft | 225 kts | 327° |
| 2026-05-06 19:52 | 48.87399 | 135.79675 | 6787 ft | 225 kts | 326° |
| 2026-05-06 19:52 | 48.88759 | 135.78476 | 6788 ft | 225 kts | 326° |
| 2026-05-06 19:52 | 48.90107 | 135.77280 | 6784 ft | 224 kts | 326° |
| 2026-05-06 19:53 | 48.91412 | 135.76022 | 6778 ft | 222 kts | 317° |
| 2026-05-06 19:53 | 48.92475 | 135.74322 | 6781 ft | 219 kts | 303° |
| 2026-05-06 19:53 | 48.93312 | 135.72414 | 6782 ft | 218 kts | 301° |
| 2026-05-06 19:53 | 48.94128 | 135.70471 | 6780 ft | 219 kts | 301° |
| 2026-05-06 19:54 | 48.94950 | 135.68517 | 6782 ft | 219 kts | 301° |
| 2026-05-06 19:54 | 48.95773 | 135.66574 | 6778 ft | 219 kts | 301° |
| 2026-05-06 19:54 | 48.96605 | 135.64613 | 6780 ft | 220 kts | 301° |
| 2026-05-06 19:54 | 48.97428 | 135.62654 | 6776 ft | 220 kts | 297° |
| 2026-05-06 19:55 | 48.98000 | 135.60522 | 6777 ft | 218 kts | 283° |
| 2026-05-06 19:55 | 48.98251 | 135.58270 | 6785 ft | 217 kts | 277° |
| 2026-05-06 19:55 | 48.98433 | 135.55997 | 6783 ft | 217 kts | 277° |
| 2026-05-06 19:55 | 48.98612 | 135.53699 | 6780 ft | 217 kts | 277° |
| 2026-05-06 19:56 | 48.98794 | 135.51424 | 6778 ft | 217 kts | 277° |
| 2026-05-06 19:56 | 48.98797 | 135.49165 | 6748 ft | 217 kts | 255° |
| 2026-05-06 19:56 | 48.98017 | 135.47188 | 6759 ft | 222 kts | 225° |
| 2026-05-06 19:56 | 48.96649 | 135.46068 | 6737 ft | 228 kts | 196° |
| 2026-05-06 19:57 | 48.95064 | 135.46086 | 6453 ft | 233 kts | 174° |
| 2026-05-06 19:57 | 48.93473 | 135.46523 | 6044 ft | 236 kts | 174° |
| 2026-05-06 19:57 | 48.91847 | 135.46968 | 5691 ft | 236 kts | 174° |
| 2026-05-06 19:57 | 48.90253 | 135.47395 | 5517 ft | 234 kts | 174° |
| 2026-05-06 19:58 | 48.88632 | 135.47823 | 5517 ft | 236 kts | 174° |
| 2026-05-06 19:58 | 48.87036 | 135.48235 | 5515 ft | 236 kts | 174° |
| 2026-05-06 19:58 | 48.85400 | 135.48657 | 5512 ft | 235 kts | 174° |
| 2026-05-06 19:58 | 48.83791 | 135.49072 | 5515 ft | 236 kts | 174° |
| 2026-05-06 19:59 | 48.82178 | 135.49486 | 5517 ft | 235 kts | 174° |
| 2026-05-06 19:59 | 48.80561 | 135.49902 | 5518 ft | 236 kts | 174° |
| 2026-05-06 19:59 | 48.78949 | 135.50314 | 5521 ft | 235 kts | 174° |
| 2026-05-06 19:59 | 48.77325 | 135.50636 | 5501 ft | 232 kts | 188° |
| 2026-05-06 20:00 | 48.75860 | 135.50003 | 5442 ft | 211 kts | 214° |
| 2026-05-06 20:00 | 48.74728 | 135.48791 | 5251 ft | 192 kts | 226° |
| 2026-05-06 20:00 | 48.73792 | 135.47443 | 5112 ft | 184 kts | 229° |
| 2026-05-06 20:00 | 48.72890 | 135.46089 | 4862 ft | 183 kts | 229° |
| 2026-05-06 20:01 | 48.71982 | 135.44753 | 4616 ft | 182 kts | 228° |
| 2026-05-06 20:01 | 48.71058 | 135.43433 | 4376 ft | 182 kts | 227° |
| 2026-05-06 20:01 | 48.70135 | 135.42143 | 4135 ft | 182 kts | 227° |
| 2026-05-06 20:01 | 48.69192 | 135.40848 | 3899 ft | 182 kts | 227° |
| 2026-05-06 20:02 | 48.68257 | 135.39575 | 3667 ft | 181 kts | 226° |
| 2026-05-06 20:02 | 48.67352 | 135.38353 | 3446 ft | 168 kts | 227° |
| 2026-05-06 20:02 | 48.66518 | 135.37230 | 3235 ft | 157 kts | 226° |
| 2026-05-06 20:02 | 48.65720 | 135.36153 | 3034 ft | 149 kts | 227° |
| 2026-05-06 20:03 | 48.64954 | 135.35115 | 2868 ft | 148 kts | 227° |
| 2026-05-06 20:03 | 48.64185 | 135.34067 | 2699 ft | 147 kts | 227° |
| 2026-05-06 20:03 | 48.63428 | 135.33029 | 2524 ft | 147 kts | 227° |
| 2026-05-06 20:03 | 48.62678 | 135.32007 | 2359 ft | 146 kts | 226° |
| 2026-05-06 20:04 | 48.61919 | 135.30975 | 2184 ft | 146 kts | 227° |
| 2026-05-06 20:04 | 48.61165 | 135.29953 | 2006 ft | 145 kts | 226° |
| 2026-05-06 20:04 | 48.60421 | 135.28944 | 1827 ft | 145 kts | 226° |
| 2026-05-06 20:04 | 48.59676 | 135.27933 | 1645 ft | 144 kts | 226° |
| 2026-05-06 20:05 | 48.58929 | 135.26918 | 1461 ft | 144 kts | 225° |
| 2026-05-06 20:05 | 48.58183 | 135.25900 | 1278 ft | 144 kts | 225° |
| 2026-05-06 20:05 | 48.57438 | 135.24887 | 1099 ft | 143 kts | 225° |
| 2026-05-06 20:05 | 48.56707 | 135.23883 | 920 ft | 143 kts | 225° |
| 2026-05-06 20:06 | 48.55957 | 135.22879 | 737 ft | 142 kts | 223° |
| 2026-05-06 20:06 | 48.55220 | 135.21883 | 568 ft | 142 kts | 224° |
| 2026-05-06 20:06 | 48.54496 | 135.20883 | 392 ft | 142 kts | 224° |
| 2026-05-06 20:06 | 48.53762 | 135.19876 | 243 ft | 137 kts | 223° |
| 2026-05-06 20:07 | 48.53155 | 135.19043 | 254 ft | 96 kts | 221° |
| 2026-05-06 20:07 | 48.52788 | 135.18539 | 252 ft | 46 kts | 222° |
| 2026-05-06 20:07 | 48.52666 | 135.18372 | 250 ft | 13 kts | 223° |
| 2026-05-06 20:07 | 48.52660 | 135.18256 | 252 ft | 11 kts | 304° |
| 2026-05-06 20:08 | 48.52705 | 135.18178 | 256 ft | 8 kts | 311° |
| 2026-05-06 20:08 | 48.52738 | 135.18121 | 258 ft | 5 kts | 311° |
| 2026-05-06 20:08 | 48.52760 | 135.18086 | 259 ft | 3 kts | 311° |
| 2026-05-06 20:08 | 48.52776 | 135.18057 | 261 ft | 5 kts | 312° |
| 2026-05-06 20:09 | 48.52813 | 135.17996 | 264 ft | 10 kts | 312° |
| 2026-05-06 20:09 | 48.52861 | 135.17917 | 267 ft | 9 kts | 312° |
| 2026-05-06 20:09 | 48.52908 | 135.17839 | 269 ft | 9 kts | 312° |
| 2026-05-06 20:09 | 48.52921 | 135.17737 | 270 ft | 14 kts | 241° |
| 2026-05-06 20:10 | 48.52853 | 135.17635 | 271 ft | 13 kts | 222° |
| 2026-05-06 20:10 | 48.52783 | 135.17540 | 270 ft | 9 kts | 221° |
| 2026-05-06 20:10 | 48.52723 | 135.17548 | 270 ft | 10 kts | 141° |
| 2026-05-06 20:10 | 48.52662 | 135.17563 | 270 ft | 9 kts | 213° |
| 2026-05-06 20:11 | 48.52608 | 135.17493 | 270 ft | 10 kts | 222° |
| 2026-05-06 20:11 | 48.52554 | 135.17419 | 271 ft | 10 kts | 222° |
| 2026-05-06 20:11 | 48.52502 | 135.17349 | 271 ft | 8 kts | 221° |
| 2026-05-06 20:11 | 48.52459 | 135.17290 | 269 ft | 6 kts | 226° |
| 2026-05-06 20:12 | 48.52464 | 135.17215 | 267 ft | 6 kts | 308° |
| 2026-05-06 20:12 | 48.52486 | 135.17177 | 268 ft | 2 kts | 312° |
| 2026-05-06 20:12 | 48.52496 | 135.17162 | 268 ft | 1 kts | 312° |